Time;durP1;ratioP1;P1;durP2;ratioP2;P2;SDS_P1;SDS_P2;PMS_P1;PMS_P2;Temp;Humidity;BMP_temperature;BMP_pressure;BME280_temperature;BME280_humidity;BME280_pressure;Samples;Min_cycle;Max_cycle;Signal;HPM_P1;HPM_P2
2023/01/29 00:01:22;;;;;;;;;;;;;;;8.44;82.07;102625.88;7361014;19;19922;-62
2023/01/29 00:03:50;;;;;;;;;;;;;;;8.46;82.54;102624.84;7362464;19;20348;-59
2023/01/29 00:06:17;;;;;;;;;;;;;;;8.46;81.63;102634.50;7361162;19;20329;-61
2023/01/29 00:08:45;;;;;;;;;;;;;;;8.42;81.08;102631.22;7360703;19;19919;-61
2023/01/29 00:11:12;;;;;;;;;;;;;;;8.37;79.91;102630.66;7361515;19;20459;-61
2023/01/29 00:13:40;;;;;;;;;;;;;;;8.39;80.67;102635.78;7360199;19;19919;-60
2023/01/29 00:16:07;;;;;;;;;;;;;;;8.37;80.81;102629.81;7360007;19;20047;-61
2023/01/29 00:18:37;;;;;;;;;;;;;;;8.36;81.24;102630.75;7361043;19;19954;-60
2023/01/29 00:21:07;;;;;;;;;;;;;;;8.37;80.69;102635.06;7363484;19;19919;-62
2023/01/29 00:23:34;;;;;;;;;;;;;;;8.41;81.57;102628.69;7361877;19;19914;-59
2023/01/29 00:26:01;;;;;;;;;;;;;;;8.37;81.37;102632.44;7362533;19;20499;-59
2023/01/29 00:28:28;;;;;;;;;;;;;;;8.39;81.86;102626.16;7359253;19;19946;-60
2023/01/29 00:30:54;;;;;;;;;;;;;;;8.42;82.99;102633.00;7360628;19;19923;-60
2023/01/29 00:33:21;;;;;;;;;;;;;;;8.41;83.07;102628.69;7361304;19;20167;-63
2023/01/29 00:35:48;;;;;;;;;;;;;;;8.40;82.21;102629.63;7363071;19;20877;-63
2023/01/29 00:38:15;;;;;;;;;;;;;;;8.41;81.52;102629.53;7363183;19;19975;-61
2023/01/29 00:45:56;;;;;;;;;;;;;;;8.39;81.73;102628.78;7359625;19;20015;-62
2023/01/29 00:48:22;;;;;;;;;;;;;;;8.39;81.71;102627.94;7365676;19;20866;-61
2023/01/29 00:50:49;;;;;;;;;;;;;;;8.40;82.90;102630.47;7360093;19;19930;-60
2023/01/29 00:53:16;;;;;;;;;;;;;;;8.39;83.20;102633.16;7360267;19;19923;-61
2023/01/29 00:55:43;;;;;;;;;;;;;;;8.37;83.87;102629.81;7362489;19;19934;-62
2023/01/29 00:58:10;;;;;;;;;;;;;;;8.38;84.61;102626.28;7359867;19;20510;-62
2023/01/29 01:00:37;;;;;;;;;;;;;;;8.36;84.45;102623.72;7361850;19;19930;-60
2023/01/29 01:03:04;;;;;;;;;;;;;;;8.37;83.99;102620.19;7363002;19;20629;-61
2023/01/29 01:05:32;;;;;;;;;;;;;;;8.41;83.58;102623.44;7360207;19;19931;-61
2023/01/29 01:07:58;;;;;;;;;;;;;;;8.41;83.84;102615.56;7361628;19;19929;-61
2023/01/29 01:10:27;;;;;;;;;;;;;;;8.41;83.84;102613.81;7360948;19;19923;-62
2023/01/29 01:12:54;;;;;;;;;;;;;;;8.42;84.43;102609.41;7360947;19;19939;-62
2023/01/29 01:15:22;;;;;;;;;;;;;;;8.41;84.29;102602.47;7357389;19;19911;-63
2023/01/29 01:17:51;;;;;;;;;;;;;;;8.39;84.39;102599.94;7361229;19;19919;-61
2023/01/29 01:20:18;;;;;;;;;;;;;;;8.36;84.47;102599.28;7360259;19;19994;-61
2023/01/29 01:22:45;;;;;;;;;;;;;;;8.35;85.18;102598.44;7361148;19;19915;-62
2023/01/29 01:25:11;;;;;;;;;;;;;;;8.32;85.63;102596.00;7358761;19;19929;-61
2023/01/29 01:27:40;;;;;;;;;;;;;;;8.27;84.90;102594.56;7355826;19;19930;-62
2023/01/29 01:30:09;;;;;;;;;;;;;;;8.26;85.22;102583.25;7361075;19;19938;-61
2023/01/29 01:32:36;;;;;;;;;;;;;;;8.28;85.14;102585.78;7361525;19;19943;-59
2023/01/29 01:35:03;;;;;;;;;;;;;;;8.27;84.95;102584.94;7357735;19;20422;-61
2023/01/29 01:37:29;;;;;;;;;;;;;;;8.26;84.88;102582.41;7358761;19;20176;-63
2023/01/29 01:39:57;;;;;;;;;;;;;;;8.26;84.92;102582.41;7362639;19;19922;-62
2023/01/29 01:42:29;;;;;;;;;;;;;;;8.23;85.06;102582.59;7358442;19;19930;-62
2023/01/29 01:44:59;;;;;;;;;;;;;;;8.23;84.96;102579.97;7359377;19;20241;-63
2023/01/29 01:47:30;;;;;;;;;;;;;;;8.21;85.20;102592.31;7359283;19;20554;-61
2023/01/29 01:50:01;;;;;;;;;;;;;;;8.16;84.30;102585.59;7358248;19;19948;-63
2023/01/29 01:52:30;;;;;;;;;;;;;;;8.18;84.25;102592.53;7358272;19;20367;-64
2023/01/29 01:54:57;;;;;;;;;;;;;;;8.13;84.13;102592.78;7355506;19;19926;-64
2023/01/29 01:57:26;;;;;;;;;;;;;;;8.11;84.03;102598.13;7353993;19;19930;-62
2023/01/29 01:59:56;;;;;;;;;;;;;;;8.12;83.83;102589.34;7355476;19;19922;-62
2023/01/29 02:10:17;;;;;;;;;;;;;;;8.05;84.55;102597.66;7358914;19;19955;-62
2023/01/29 02:12:45;;;;;;;;;;;;;;;8.05;84.21;102600.28;7355596;19;19929;-61
2023/01/29 02:15:11;;;;;;;;;;;;;;;8.02;83.86;102596.06;7357009;19;20277;-61
2023/01/29 02:17:38;;;;;;;;;;;;;;;8.04;84.88;102586.31;7357661;19;20268;-61
2023/01/29 02:20:13;;;;;;;;;;;;;;;8.05;85.38;102590.63;7358049;19;19939;-61
2023/01/29 02:22:53;;;;;;;;;;;;;;;8.09;85.69;102592.13;7357208;19;19926;-62
2023/01/29 02:25:30;;;;;;;;;;;;;;;8.13;85.67;102579.66;7356107;19;20333;-62
2023/01/29 02:28:06;;;;;;;;;;;;;;;8.09;84.61;102586.88;7357383;19;19927;-61
2023/01/29 02:30:39;;;;;;;;;;;;;;;8.10;84.38;102588.56;7359365;19;20337;-63
2023/01/29 02:33:16;;;;;;;;;;;;;;;8.14;85.89;102582.19;7360427;19;20241;-61
2023/01/29 02:35:45;;;;;;;;;;;;;;;8.18;87.32;102588.94;7356081;19;20704;-63
2023/01/29 02:38:22;;;;;;;;;;;;;;;8.15;85.89;102583.91;7359328;19;20523;-64
2023/01/29 02:40:50;;;;;;;;;;;;;;;8.15;84.78;102594.38;7356335;19;19919;-63
2023/01/29 02:43:23;;;;;;;;;;;;;;;8.14;83.76;102595.31;7358443;19;19934;-61
2023/01/29 02:46:00;;;;;;;;;;;;;;;8.13;83.29;102598.03;7354752;19;19948;-62
2023/01/29 02:48:33;;;;;;;;;;;;;;;8.13;83.02;102604.09;7358919;19;20024;-63
2023/01/29 02:51:04;;;;;;;;;;;;;;;8.11;83.03;102599.91;7355482;19;19977;-62
2023/01/29 02:53:34;;;;;;;;;;;;;;;8.11;82.96;102606.00;7355484;19;19923;-62
2023/01/29 02:56:07;;;;;;;;;;;;;;;8.10;83.28;102606.94;7356970;19;19947;-63
2023/01/29 02:58:43;;;;;;;;;;;;;;;8.10;83.38;102604.31;7365157;19;19923;-61
2023/01/29 03:01:16;;;;;;;;;;;;;;;8.07;83.63;102591.41;7364651;19;20203;-62
2023/01/29 03:03:46;;;;;;;;;;;;;;;8.06;84.36;102589.72;7364551;19;19923;-61
2023/01/29 03:06:21;;;;;;;;;;;;;;;8.05;84.49;102588.00;7362459;19;19911;-61
2023/01/29 03:08:52;;;;;;;;;;;;;;;8.08;84.39;102593.06;7363988;19;19965;-62
2023/01/29 03:11:20;;;;;;;;;;;;;;;8.08;83.98;102581.72;7363833;19;20717;-62
2023/01/29 03:13:50;;;;;;;;;;;;;;;8.07;83.80;102580.91;7361970;19;19961;-63
2023/01/29 03:16:26;;;;;;;;;;;;;;;8.09;83.76;102581.66;7362966;19;19930;-61
2023/01/29 03:18:56;;;;;;;;;;;;;;;8.09;83.62;102565.06;7364444;19;19954;-63
2023/01/29 03:22:03;;;;;;;;;;;;;;;8.06;83.86;102563.50;7363728;19;19923;-62
2023/01/29 03:32:17;;;;;;;;;;;;;;;8.04;85.43;102552.25;7366129;19;20263;-61
2023/01/29 03:34:47;;;;;;;;;;;;;;;8.03;84.84;102547.09;7364005;19;20347;-62
2023/01/29 03:37:18;;;;;;;;;;;;;;;8.01;84.75;102539.34;7366232;19;19922;-62
2023/01/29 03:39:45;;;;;;;;;;;;;;;8.01;84.85;102536.72;7362790;19;19927;-61
2023/01/29 03:42:21;;;;;;;;;;;;;;;8.01;84.68;102535.88;7362745;19;19911;-61
2023/01/29 03:44:53;;;;;;;;;;;;;;;7.99;84.73;102543.81;7364313;19;19926;-61
2023/01/29 03:47:23;;;;;;;;;;;;;;;7.99;84.80;102541.19;7361335;19;20814;-62
2023/01/29 03:49:58;;;;;;;;;;;;;;;8.01;85.04;102536.72;7362186;19;19918;-63
2023/01/29 03:52:33;;;;;;;;;;;;;;;8.00;85.55;102542.03;7362436;19;19932;-61
2023/01/29 03:55:09;;;;;;;;;;;;;;;8.01;86.34;102535.88;7363601;19;19926;-62
2023/01/29 03:57:44;;;;;;;;;;;;;;;8.00;86.24;102542.88;7361994;19;19953;-62
2023/01/29 04:00:21;;;;;;;;;;;;;;;8.00;85.99;102539.44;7362301;19;19915;-62
2023/01/29 04:02:48;;;;;;;;;;;;;;;7.99;85.65;102535.13;7363933;19;19923;-61
2023/01/29 04:05:18;;;;;;;;;;;;;;;7.98;85.63;102534.28;7361017;19;20826;-63
2023/01/29 04:07:46;;;;;;;;;;;;;;;7.99;86.39;102533.34;7359877;19;19922;-62
2023/01/29 04:10:18;;;;;;;;;;;;;;;8.00;87.35;102523.69;7362296;19;19923;-63
2023/01/29 04:12:47;;;;;;;;;;;;;;;8.02;87.55;102520.06;7360295;19;19919;-62
2023/01/29 04:15:15;;;;;;;;;;;;;;;8.03;86.75;102523.50;7361999;19;20278;-62
2023/01/29 04:17:44;;;;;;;;;;;;;;;8.02;85.97;102529.69;7363230;19;20456;-62
2023/01/29 04:20:11;;;;;;;;;;;;;;;8.02;85.83;102516.59;7361854;19;20355;-64
2023/01/29 04:22:39;;;;;;;;;;;;;;;8.04;85.57;102518.16;7362897;19;19931;-62
2023/01/29 04:25:14;;;;;;;;;;;;;;;8.04;85.65;102520.78;7361940;19;19948;-64
2023/01/29 04:27:45;;;;;;;;;;;;;;;8.04;85.90;102522.56;7362550;19;19963;-62
2023/01/29 04:30:21;;;;;;;;;;;;;;;8.03;86.36;102526.97;7357262;19;19915;-60
2023/01/29 04:32:57;;;;;;;;;;;;;;;8.01;86.53;102522.78;7360461;19;19922;-62
2023/01/29 04:35:30;;;;;;;;;;;;;;;8.00;86.34;102527.16;7359458;19;19922;-62
2023/01/29 04:38:07;;;;;;;;;;;;;;;8.00;86.56;102518.47;7362747;19;19923;-61
2023/01/29 04:40:42;;;;;;;;;;;;;;;7.99;87.07;102519.38;7359253;19;19922;-61
2023/01/29 04:43:14;;;;;;;;;;;;;;;7.99;87.79;102512.38;7358073;19;19922;-62
2023/01/29 04:45:51;;;;;;;;;;;;;;;7.99;87.80;102511.53;7362014;19;19925;-61
2023/01/29 04:48:27;;;;;;;;;;;;;;;7.97;86.72;102513.41;7364529;19;19945;-63
2023/01/29 04:50:54;;;;;;;;;;;;;;;7.95;85.91;102515.28;7361692;19;20263;-62
2023/01/29 04:53:21;;;;;;;;;;;;;;;7.95;86.18;102508.25;7363591;19;19952;-61
2023/01/29 04:55:51;;;;;;;;;;;;;;;7.97;86.13;102503.78;7361420;19;19956;-61
2023/01/29 04:58:27;;;;;;;;;;;;;;;7.97;86.43;102501.16;7356124;19;19922;-62
2023/01/29 05:00:56;;;;;;;;;;;;;;;7.98;86.50;102502.81;7348511;19;19923;-62
2023/01/29 05:03:25;;;;;;;;;;;;;;;7.98;86.60;102501.97;7358949;19;19927;-61
2023/01/29 05:05:53;;;;;;;;;;;;;;;8.01;88.01;102499.19;7357836;19;19939;-62
2023/01/29 05:08:21;;;;;;;;;;;;;;;8.02;88.21;102480.75;7362412;19;19918;-61
2023/01/29 05:10:50;;;;;;;;;;;;;;;8.03;88.65;102478.94;7360860;19;19923;-61
2023/01/29 05:13:17;;;;;;;;;;;;;;;8.00;87.62;102480.00;7352164;19;19911;-62
2023/01/29 05:15:49;;;;;;;;;;;;;;;7.97;86.94;102487.22;7360808;19;19922;-62
2023/01/29 05:18:15;;;;;;;;;;;;;;;7.96;87.59;102478.50;7360659;19;19979;-61
2023/01/29 05:20:43;;;;;;;;;;;;;;;7.95;87.72;102476.81;7357391;19;19933;-61
2023/01/29 05:23:18;;;;;;;;;;;;;;;7.94;87.72;102474.28;7358027;19;19927;-62
2023/01/29 05:25:46;;;;;;;;;;;;;;;7.97;87.93;102463.63;7358791;19;20098;-62
2023/01/29 05:28:16;;;;;;;;;;;;;;;7.97;88.13;102461.00;7357352;19;20490;-63
2023/01/29 05:30:45;;;;;;;;;;;;;;;7.96;87.71;102459.31;7361195;19;19923;-62
2023/01/29 05:33:14;;;;;;;;;;;;;;;7.96;87.03;102468.03;7361746;19;19926;-61
2023/01/29 05:35:41;;;;;;;;;;;;;;;7.96;86.89;102462.78;7359811;19;19930;-62
2023/01/29 05:38:08;;;;;;;;;;;;;;;7.95;86.96;102461.09;7359183;19;19943;-62
2023/01/29 05:40:35;;;;;;;;;;;;;;;7.91;86.74;102450.91;7359559;19;19923;-61
2023/01/29 05:43:02;;;;;;;;;;;;;;;7.87;86.58;102446.78;7360492;19;19919;-61
2023/01/29 05:45:30;;;;;;;;;;;;;;;7.89;87.67;102450.13;7353791;19;20023;-60
2023/01/29 05:47:57;;;;;;;;;;;;;;;7.90;88.22;102446.59;7361122;19;19934;-61
2023/01/29 05:50:24;;;;;;;;;;;;;;;7.83;87.33;102440.88;7359146;19;19921;-62
2023/01/29 05:53:01;;;;;;;;;;;;;;;7.83;87.25;102440.03;7360813;19;19918;-62
2023/01/29 05:55:28;;;;;;;;;;;;;;;7.82;87.55;102441.84;7357660;19;19915;-62
2023/01/29 05:57:55;;;;;;;;;;;;;;;7.86;88.26;102448.56;7357305;19;20269;-63
2023/01/29 06:00:22;;;;;;;;;;;;;;;7.86;88.05;102434.63;7356954;19;19926;-61
2023/01/29 06:02:49;;;;;;;;;;;;;;;7.87;87.38;102436.31;7357061;19;20345;-61
2023/01/29 06:05:16;;;;;;;;;;;;;;;7.87;87.51;102433.69;7358743;19;19950;-62
2023/01/29 06:07:44;;;;;;;;;;;;;;;7.88;87.88;102425.72;7358557;19;19952;-62
2023/01/29 06:10:12;;;;;;;;;;;;;;;7.86;87.25;102424.97;7356722;19;19927;-61
2023/01/29 06:12:40;;;;;;;;;;;;;;;7.88;87.31;102422.25;7354715;19;19985;-61
2023/01/29 06:15:07;;;;;;;;;;;;;;;7.87;86.76;102421.44;7354260;19;19973;-61
2023/01/29 06:17:34;;;;;;;;;;;;;;;7.89;87.15;102422.16;7357493;19;20353;-61
2023/01/29 06:20:01;;;;;;;;;;;;;;;7.93;87.34;102413.16;7356922;19;20263;-61
2023/01/29 06:22:28;;;;;;;;;;;;;;;7.93;87.23;102423.63;7359059;19;19923;-62
2023/01/29 06:24:54;;;;;;;;;;;;;;;7.93;86.98;102417.56;7356502;19;19923;-63
2023/01/29 06:27:21;;;;;;;;;;;;;;;7.96;87.88;102415.59;7359228;19;20218;-62
2023/01/29 06:29:48;;;;;;;;;;;;;;;7.98;87.86;102425.97;7357740;19;19943;-61
2023/01/29 06:32:15;;;;;;;;;;;;;;;7.96;87.35;102433.94;7363844;19;20720;-62
2023/01/29 06:34:41;;;;;;;;;;;;;;;7.90;85.80;102425.63;7366257;19;19919;-62
2023/01/29 06:37:08;;;;;;;;;;;;;;;7.85;85.68;102427.69;7368361;19;20244;-61
2023/01/29 06:39:35;;;;;;;;;;;;;;;7.83;85.82;102432.16;7366802;19;20437;-62
2023/01/29 06:42:01;;;;;;;;;;;;;;;7.87;86.52;102429.28;7365920;19;20520;-62
2023/01/29 06:44:28;;;;;;;;;;;;;;;7.91;85.94;102433.41;7366834;19;19944;-61
2023/01/29 06:46:55;;;;;;;;;;;;;;;7.91;85.56;102425.53;7366486;19;20292;-62
2023/01/29 06:49:22;;;;;;;;;;;;;;;7.90;84.79;102429.09;7364017;19;19930;-63
2023/01/29 06:51:48;;;;;;;;;;;;;;;7.88;84.94;102436.19;7362901;19;20271;-62
2023/01/29 06:54:15;;;;;;;;;;;;;;;7.88;85.35;102432.72;7365642;19;20430;-62
2023/01/29 06:56:42;;;;;;;;;;;;;;;7.92;85.93;102415.91;7361530;19;20193;-62
2023/01/29 06:59:09;;;;;;;;;;;;;;;7.90;85.71;102415.13;7365002;19;19919;-62
2023/01/29 07:01:39;;;;;;;;;;;;;;;7.82;84.70;102410.41;7364108;19;19930;-61
2023/01/29 07:04:06;;;;;;;;;;;;;;;7.83;86.09;102411.22;7365542;19;19923;-62
2023/01/29 07:06:33;;;;;;;;;;;;;;;7.89;86.03;102413.44;7364058;19;19923;-61
2023/01/29 07:09:00;;;;;;;;;;;;;;;7.86;84.59;102406.63;7363478;19;20026;-62
2023/01/29 07:11:27;;;;;;;;;;;;;;;7.83;84.19;102404.19;7364182;19;19923;-62
2023/01/29 07:13:54;;;;;;;;;;;;;;;7.86;84.48;102398.78;7359460;19;20002;-63
2023/01/29 07:16:22;;;;;;;;;;;;;;;7.88;84.63;102403.91;7362028;19;19919;-62
2023/01/29 07:18:49;;;;;;;;;;;;;;;7.92;84.61;102403.63;7363601;19;19943;-62
2023/01/29 07:21:15;;;;;;;;;;;;;;;7.96;85.13;102410.38;7360615;19;19961;-62
2023/01/29 07:23:42;;;;;;;;;;;;;;;7.98;84.26;102413.72;7364684;19;19926;-62
2023/01/29 07:26:09;;;;;;;;;;;;;;;8.03;84.14;102402.94;7364298;19;20393;-62
2023/01/29 07:28:36;;;;;;;;;;;;;;;8.04;84.17;102402.84;7362785;19;19926;-63
2023/01/29 07:31:04;;;;;;;;;;;;;;;8.04;83.51;102396.75;7365092;19;19922;-61
2023/01/29 07:33:31;;;;;;;;;;;;;;;8.00;83.07;102390.88;7361355;19;19957;-62
2023/01/29 07:35:58;;;;;;;;;;;;;;;7.97;82.91;102392.88;7359711;19;20030;-60
2023/01/29 07:38:24;;;;;;;;;;;;;;;7.94;83.10;102386.03;7363359;19;19934;-63
2023/01/29 07:40:51;;;;;;;;;;;;;;;7.94;83.59;102390.41;7365598;19;19974;-62
2023/01/29 07:43:18;;;;;;;;;;;;;;;7.94;83.50;102388.63;7359670;19;19923;-62
2023/01/29 07:45:45;;;;;;;;;;;;;;;7.94;83.43;102386.03;7363213;19;19919;-61
2023/01/29 07:48:12;;;;;;;;;;;;;;;7.91;82.85;102388.00;7363169;19;19966;-62
2023/01/29 07:50:39;;;;;;;;;;;;;;;7.93;83.83;102379.09;7364484;19;19929;-62
2023/01/29 07:53:06;;;;;;;;;;;;;;;7.97;84.30;102387.63;7362025;19;20951;-62
2023/01/29 07:55:33;;;;;;;;;;;;;;;7.98;84.15;102382.25;7365023;19;19927;-62
2023/01/29 07:58:01;;;;;;;;;;;;;;;8.00;83.90;102387.41;7365026;19;19926;-61
2023/01/29 08:00:28;;;;;;;;;;;;;;;8.04;84.44;102394.13;7363597;19;20857;-62
2023/01/29 08:03:05;;;;;;;;;;;;;;;8.04;83.95;102389.75;7363700;19;19927;-62
2023/01/29 08:05:32;;;;;;;;;;;;;;;8.09;84.82;102392.91;7361472;19;19919;-61
2023/01/29 08:07:59;;;;;;;;;;;;;;;8.13;84.46;102383.91;7363007;19;20411;-62
2023/01/29 08:10:34;;;;;;;;;;;;;;;8.18;84.72;102378.34;7362598;19;19918;-60
2023/01/29 08:13:01;;;;;;;;;;;;;;;8.20;83.88;102397.47;7360841;19;20311;-62
2023/01/29 08:15:28;;;;;;;;;;;;;;;8.23;84.02;102386.78;7356621;19;19931;-62
2023/01/29 08:17:55;;;;;;;;;;;;;;;8.26;84.53;102389.22;7359914;19;20016;-62
2023/01/29 08:20:24;;;;;;;;;;;;;;;8.27;83.47;102385.66;7361014;19;19923;-63
2023/01/29 08:23:01;;;;;;;;;;;;;;;8.31;83.56;102388.94;7363520;19;19918;-63
2023/01/29 08:25:28;;;;;;;;;;;;;;;8.35;84.08;102382.56;7360658;19;19954;-63
2023/01/29 08:27:56;;;;;;;;;;;;;;;8.30;82.98;102387.25;7360264;19;20427;-66
2023/01/29 08:30:25;;;;;;;;;;;;;;;8.31;82.61;102389.78;7361254;19;20446;-62
2023/01/29 08:32:52;;;;;;;;;;;;;;;8.32;82.65;102377.53;7364174;19;19926;-62
2023/01/29 08:35:19;;;;;;;;;;;;;;;8.31;82.71;102386.31;7359838;19;19925;-61
2023/01/29 08:37:58;;;;;;;;;;;;;;;8.36;83.41;102381.63;7362593;19;19933;-59
2023/01/29 08:40:25;;;;;;;;;;;;;;;8.39;83.62;102376.16;7361780;19;21605;-62
2023/01/29 08:42:56;;;;;;;;;;;;;;;8.41;83.00;102380.38;7359205;19;19922;-62
2023/01/29 08:45:25;;;;;;;;;;;;;;;8.41;83.13;102385.63;7358435;19;19929;-63
2023/01/29 08:47:52;;;;;;;;;;;;;;;8.41;82.81;102384.78;7363151;19;19939;-63
2023/01/29 08:50:19;;;;;;;;;;;;;;;8.38;82.24;102377.94;7360461;19;19915;-63
2023/01/29 08:52:46;;;;;;;;;;;;;;;8.35;82.61;102380.78;7361298;19;19911;-62
2023/01/29 08:55:12;;;;;;;;;;;;;;;8.40;83.09;102380.47;7359481;19;20256;-62
2023/01/29 08:57:40;;;;;;;;;;;;;;;8.41;82.97;102376.91;7360813;19;20280;-62
2023/01/29 09:00:08;;;;;;;;;;;;;;;8.41;82.98;102376.91;7359844;19;20043;-62
2023/01/29 09:02:35;;;;;;;;;;;;;;;8.44;83.38;102376.69;7363549;19;19918;-62
2023/01/29 09:05:01;;;;;;;;;;;;;;;8.40;82.69;102376.06;7357656;19;19911;-64
2023/01/29 09:07:29;;;;;;;;;;;;;;;8.37;82.62;102375.44;7359893;19;20337;-62
2023/01/29 09:09:55;;;;;;;;;;;;;;;8.34;82.17;102371.22;7359656;19;20268;-62
2023/01/29 09:12:22;;;;;;;;;;;;;;;8.31;82.49;102370.59;7360771;19;20465;-61
2023/01/29 09:14:49;;;;;;;;;;;;;;;8.36;83.49;102371.97;7357923;19;21317;-61
2023/01/29 09:17:15;;;;;;;;;;;;;;;8.35;83.46;102362.41;7355790;19;20579;-63
2023/01/29 09:19:42;;;;;;;;;;;;;;;8.38;83.54;102371.88;7358476;19;20014;-62
2023/01/29 09:22:09;;;;;;;;;;;;;;;8.38;83.36;102371.88;7360220;19;19959;-62
2023/01/29 09:24:37;;;;;;;;;;;;;;;8.41;84.14;102369.06;7362876;19;19937;-61
2023/01/29 09:27:04;;;;;;;;;;;;;;;8.39;83.72;102373.53;7359190;19;19954;-61
2023/01/29 09:29:31;;;;;;;;;;;;;;;8.39;83.67;102368.28;7359419;19;19923;-63
2023/01/29 09:32:02;;;;;;;;;;;;;;;8.38;83.68;102366.63;7359386;19;20014;-65
2023/01/29 09:34:29;;;;;;;;;;;;;;;8.41;84.48;102367.28;7362081;19;20183;-62
2023/01/29 09:36:55;;;;;;;;;;;;;;;8.41;84.17;102372.50;7357293;19;19929;-62
2023/01/29 09:39:22;;;;;;;;;;;;;;;8.41;84.52;102363.81;7359902;19;21146;-61
2023/01/29 09:41:58;;;;;;;;;;;;;;;8.41;84.44;102369.91;7359173;19;19930;-62
2023/01/29 09:44:32;;;;;;;;;;;;;;;8.45;84.83;102360.03;7355825;19;19911;-63
2023/01/29 09:47:03;;;;;;;;;;;;;;;8.51;84.65;102368.34;7357880;19;19943;-64
2023/01/29 09:49:31;;;;;;;;;;;;;;;8.50;84.64;102363.19;7359622;19;19927;-60
2023/01/29 09:52:01;;;;;;;;;;;;;;;8.52;84.31;102369.19;7359748;19;19919;-62
2023/01/29 09:54:39;;;;;;;;;;;;;;;8.52;84.35;102377.91;7360284;19;19927;-63
2023/01/29 09:57:10;;;;;;;;;;;;;;;8.52;84.71;102367.41;7356650;19;19923;-62
2023/01/29 09:59:37;;;;;;;;;;;;;;;8.56;85.15;102362.78;7360651;19;19941;-63
2023/01/29 10:02:14;;;;;;;;;;;;;;;8.54;84.79;102369.91;7358771;19;19922;-62
2023/01/29 10:04:51;;;;;;;;;;;;;;;8.60;84.63;102366.88;7357483;19;20440;-62
2023/01/29 10:07:28;;;;;;;;;;;;;;;8.62;85.01;102366.78;7359513;19;21207;-62
2023/01/29 10:10:04;;;;;;;;;;;;;;;8.59;84.72;102359.94;7359681;19;20538;-63
2023/01/29 10:12:32;;;;;;;;;;;;;;;8.57;84.36;102359.22;7354567;19;19911;-63
2023/01/29 10:15:09;;;;;;;;;;;;;;;8.59;84.50;102354.72;7357945;19;19934;-61
2023/01/29 10:17:46;;;;;;;;;;;;;;;8.66;85.14;102353.38;7356860;19;19935;-65
2023/01/29 10:20:25;;;;;;;;;;;;;;;8.74;86.38;102348.44;7359208;19;19994;-62
2023/01/29 10:23:00;;;;;;;;;;;;;;;8.76;85.74;102354.44;7360108;19;19922;-63
2023/01/29 10:25:27;;;;;;;;;;;;;;;8.78;85.37;102355.19;7359625;19;20225;-63
2023/01/29 10:27:57;;;;;;;;;;;;;;;8.82;85.87;102342.69;7358807;19;19919;-63
2023/01/29 10:30:30;;;;;;;;;;;;;;;8.89;86.21;102343.94;7357598;19;19923;-62
2023/01/29 10:33:00;;;;;;;;;;;;;;;8.91;85.99;102350.78;7359391;19;21671;-62
2023/01/29 10:35:30;;;;;;;;;;;;;;;8.90;85.95;102354.34;7357635;19;20907;-61
2023/01/29 10:38:01;;;;;;;;;;;;;;;8.84;86.33;102346.88;7360407;19;19914;-62
2023/01/29 10:40:37;;;;;;;;;;;;;;;8.84;87.00;102340.78;7357147;19;19923;-63
2023/01/29 10:43:09;;;;;;;;;;;;;;;8.85;87.39;102348.56;7335222;19;19918;-63
2023/01/29 10:45:42;;;;;;;;;;;;;;;8.88;87.45;102337.03;7353599;19;19942;-62
2023/01/29 10:48:20;;;;;;;;;;;;;;;8.92;87.98;102339.34;7358967;19;19915;-63
2023/01/29 10:50:57;;;;;;;;;;;;;;;8.94;87.63;102334.81;7356114;19;20295;-64
2023/01/29 10:53:34;;;;;;;;;;;;;;;8.92;87.40;102322.75;7358622;19;19919;-63
2023/01/29 10:56:09;;;;;;;;;;;;;;;8.93;87.50;102322.66;7358409;19;19948;-64
2023/01/29 10:58:54;;;;;;;;;;;;;;;8.92;87.53;102310.47;7355679;19;19937;-63
2023/01/29 11:01:21;;;;;;;;;;;;;;;8.90;87.21;102309.72;7358647;19;20174;-63
2023/01/29 11:03:55;;;;;;;;;;;;;;;8.92;87.50;102309.63;7359673;19;20718;-62
2023/01/29 11:06:24;;;;;;;;;;;;;;;8.95;87.97;102301.53;7355718;19;19982;-63
2023/01/29 11:08:52;;;;;;;;;;;;;;;8.95;87.58;102296.28;7355101;19;19922;-64
2023/01/29 11:11:21;;;;;;;;;;;;;;;8.90;87.75;102291.34;7354432;19;20706;-63
2023/01/29 11:13:52;;;;;;;;;;;;;;;8.93;88.18;102291.16;7355752;19;20365;-63
2023/01/29 11:16:20;;;;;;;;;;;;;;;8.96;88.85;102287.47;7354132;19;19923;-64
2023/01/29 11:18:53;;;;;;;;;;;;;;;8.98;88.80;102285.56;7356863;19;19935;-63
2023/01/29 11:21:21;;;;;;;;;;;;;;;9.02;89.00;102281.78;7363902;19;19917;-64
2023/01/29 11:23:48;;;;;;;;;;;;;;;9.05;88.88;102278.09;7361159;19;19947;-66
2023/01/29 11:26:21;;;;;;;;;;;;;;;9.06;88.60;102278.00;7363050;19;19918;-63
2023/01/29 11:28:49;;;;;;;;;;;;;;;9.05;88.35;102270.22;7361957;19;19925;-65
2023/01/29 11:31:20;;;;;;;;;;;;;;;9.06;88.38;102270.13;7362322;19;20028;-62
2023/01/29 11:33:49;;;;;;;;;;;;;;;9.11;88.57;102259.28;7362766;19;19925;-64
2023/01/29 11:36:20;;;;;;;;;;;;;;;9.19;88.98;102260.44;7361142;19;20517;-61
2023/01/29 11:39:04;;;;;;;;;;;;;;;9.23;88.75;102242.69;7361587;19;19927;-62
2023/01/29 11:41:41;;;;;;;;;;;;;;;9.25;88.67;102257.38;7357935;19;19919;-62
2023/01/29 11:44:18;;;;;;;;;;;;;;;9.29;89.14;102247.50;7358285;19;19945;-63
2023/01/29 11:46:45;;;;;;;;;;;;;;;9.33;88.60;102241.06;7362726;19;19922;-62
2023/01/29 11:49:21;;;;;;;;;;;;;;;9.32;88.27;102228.88;7363979;19;19919;-62
2023/01/29 11:51:51;;;;;;;;;;;;;;;9.32;88.16;102226.25;7363855;19;19923;-64
2023/01/29 11:54:19;;;;;;;;;;;;;;;9.30;88.07;102217.66;7363580;19;20010;-64
2023/01/29 11:56:47;;;;;;;;;;;;;;;9.29;88.38;102210.75;7364709;19;19995;-63
2023/01/29 11:59:26;;;;;;;;;;;;;;;9.30;88.51;102199.25;7361370;19;20215;-65
2023/01/29 12:01:53;;;;;;;;;;;;;;;9.34;89.16;102198.97;7367826;19;20000;-62
2023/01/29 12:04:22;;;;;;;;;;;;;;;9.36;89.13;102196.19;7360731;19;19927;-66
2023/01/29 12:06:51;;;;;;;;;;;;;;;9.35;88.71;102184.00;7362745;19;19978;-63
2023/01/29 12:09:20;;;;;;;;;;;;;;;9.40;89.33;102180.09;7360403;19;19922;-64
2023/01/29 12:11:47;;;;;;;;;;;;;;;9.44;89.60;102175.47;7362570;19;19911;-61
2023/01/29 12:14:25;;;;;;;;;;;;;;;9.51;90.08;102167.97;7362809;19;19944;-62
2023/01/29 12:17:02;;;;;;;;;;;;;;;9.65;90.44;102175.69;7361041;19;20267;-63
2023/01/29 12:19:35;;;;;;;;;;;;;;;9.71;89.89;102165.56;7362180;19;20225;-63
2023/01/29 12:22:05;;;;;;;;;;;;;;;9.77;89.47;102166.88;7362097;19;19930;-62
2023/01/29 12:24:37;;;;;;;;;;;;;;;9.81;89.67;102157.81;7361812;19;19925;-63
2023/01/29 12:27:05;;;;;;;;;;;;;;;9.82;88.74;102156.88;7358356;19;20226;-64
2023/01/29 12:29:41;;;;;;;;;;;;;;;9.85;88.88;102152.22;7361250;19;20320;-62
2023/01/29 12:32:09;;;;;;;;;;;;;;;9.85;88.46;102149.56;7363822;19;19982;-62
2023/01/29 12:34:40;;;;;;;;;;;;;;;9.91;88.07;102152.69;7364413;19;19928;-62
2023/01/29 12:37:18;;;;;;;;;;;;;;;9.94;88.09;102150.69;7357998;19;20432;-64
2023/01/29 12:39:45;;;;;;;;;;;;;;;9.97;88.02;102136.47;7360233;19;19915;-62
2023/01/29 12:42:18;;;;;;;;;;;;;;;9.96;87.46;102130.38;7360862;19;19923;-62
2023/01/29 12:44:54;;;;;;;;;;;;;;;9.97;87.54;102126.78;7360633;19;19919;-64
2023/01/29 12:47:26;;;;;;;;;;;;;;;10.04;88.13;102114.03;7356161;19;20280;-62
2023/01/29 12:49:55;;;;;;;;;;;;;;;10.00;87.20;102104.69;7357380;19;20022;-64
2023/01/29 12:52:35;;;;;;;;;;;;;;;10.00;87.50;102091.56;7358796;19;19994;-63
2023/01/29 12:55:06;;;;;;;;;;;;;;;10.04;88.01;102104.34;7356131;19;20324;-63
2023/01/29 12:57:34;;;;;;;;;;;;;;;10.03;87.94;102096.56;7354734;19;19940;-63
2023/01/29 13:00:05;;;;;;;;;;;;;;;10.01;87.95;102083.53;7360272;19;20506;-62
2023/01/29 13:02:36;;;;;;;;;;;;;;;10.06;88.37;102075.28;7362868;19;20256;-63
2023/01/29 13:05:04;;;;;;;;;;;;;;;10.19;91.42;102068.16;7353153;19;19925;-64
2023/01/29 13:07:34;;;;;;;;;;;;;;;10.31;92.02;102059.31;7357645;19;21791;-62
2023/01/29 13:10:06;;;;;;;;;;;;;;;10.32;90.21;102068.03;7355769;19;20357;-63
2023/01/29 13:12:33;;;;;;;;;;;;;;;10.24;87.41;102051.06;7359942;19;20255;-63
2023/01/29 13:15:05;;;;;;;;;;;;;;;10.21;87.97;102047.81;7359360;19;19922;-64
2023/01/29 13:17:34;;;;;;;;;;;;;;;10.16;87.93;102035.03;7357016;19;19922;-63
2023/01/29 13:20:09;;;;;;;;;;;;;;;10.11;87.66;102039.78;7359494;19;19926;-63